Time;durP1;ratioP1;P1;durP2;ratioP2;P2;SDS_P1;SDS_P2;PMS_P1;PMS_P2;Temp;Humidity;BMP_temperature;BMP_pressure;BME280_temperature;BME280_humidity;BME280_pressure;Samples;Min_cycle;Max_cycle;Signal;HPM_P1;HPM_P2
2022/08/30 00:02:43;;;;;;;8.50;7.60;;;21.20;98.90;;;;;;5016310;28;20473;-82
2022/08/30 00:05:10;;;;;;;9.00;8.00;;;21.20;99.40;;;;;;5074004;23;20535;-82
2022/08/30 00:07:37;;;;;;;8.57;7.77;;;21.20;99.80;;;;;;5056307;28;20451;-81
2022/08/30 00:10:05;;;;;;;7.67;6.97;;;21.10;99.90;;;;;;5056789;28;20456;-82
2022/08/30 00:12:32;;;;;;;10.17;8.30;;;21.00;99.90;;;;;;5056829;28;20444;-81
2022/08/30 00:15:53;;;;;;;11.93;8.10;;;21.00;99.90;;;;;;5056466;28;20579;-81
2022/08/30 00:18:21;;;;;;;9.40;8.50;;;20.90;99.90;;;;;;5016211;28;20454;-82
2022/08/30 00:20:49;;;;;;;9.03;8.27;;;20.90;99.90;;;;;;5048997;28;20452;-82
2022/08/30 00:23:17;;;;;;;13.13;8.70;;;20.90;99.90;;;;;;5058204;28;20873;-82
2022/08/30 00:25:45;;;;;;;9.17;8.37;;;20.90;99.90;;;;;;5057540;28;20445;-83
2022/08/30 00:28:12;;;;;;;9.43;8.53;;;21.00;99.90;;;;;;5068308;28;20448;-82
2022/08/30 00:30:40;;;;;;;9.57;7.90;;;20.90;99.90;;;;;;5080406;28;20448;-80
2022/08/30 00:33:07;;;;;;;7.90;7.10;;;20.80;99.90;;;;;;5064981;28;20441;-81
2022/08/30 00:35:35;;;;;;;9.50;8.60;;;20.80;99.90;;;;;;5058562;28;20554;-81
2022/08/30 00:38:02;;;;;;;8.90;8.07;;;20.80;99.90;;;;;;5056761;28;20440;-81
2022/08/30 00:40:29;;;;;;;9.30;8.50;;;20.70;99.90;;;;;;5064562;28;20452;-81
2022/08/30 00:42:57;;;;;;;10.53;8.37;;;20.70;99.90;;;;;;5065965;28;20476;-83
2022/08/30 00:45:28;;;;;;;9.80;8.70;;;20.60;99.90;;;;;;5057954;28;20453;-83
2022/08/30 00:47:55;;;;;;;10.13;7.63;;;20.60;99.90;;;;;;5059385;28;20445;-83
2022/08/30 00:50:27;;;;;;;9.10;8.20;;;20.60;99.90;;;;;;5060041;28;20957;-81
2022/08/30 00:53:00;;;;;;;8.93;8.13;;;20.50;99.90;;;;;;5063191;28;20448;-82
2022/08/30 00:55:28;;;;;;;9.20;8.30;;;20.40;99.90;;;;;;5060591;28;20480;-83
2022/08/30 00:57:59;;;;;;;9.40;8.50;;;20.40;99.90;;;;;;5057592;28;20456;-83
2022/08/30 01:00:26;;;;;;;10.00;9.10;;;20.40;99.90;;;;;;5057509;28;20514;-83
2022/08/30 01:02:53;;;;;;;9.30;8.50;;;20.40;99.90;;;;;;5056775;28;20441;-83
2022/08/30 01:05:20;;;;;;;9.13;8.23;;;20.30;99.90;;;;;;5058695;28;20882;-84
2022/08/30 01:07:47;;;;;;;8.83;7.70;;;20.30;99.90;;;;;;5058155;28;20433;-82
2022/08/30 01:10:16;;;;;;;8.80;7.97;;;20.30;99.90;;;;;;5057156;28;20479;-84
2022/08/30 01:12:44;;;;;;;11.23;8.50;;;20.30;99.90;;;;;;5056867;28;20475;-83
2022/08/30 01:15:13;;;;;;;9.37;8.50;;;20.30;99.90;;;;;;5056747;28;20480;-83
2022/08/30 01:17:41;;;;;;;9.03;8.20;;;20.30;99.90;;;;;;5057032;28;20523;-84
2022/08/30 01:20:11;;;;;;;8.70;7.80;;;20.20;99.90;;;;;;5056896;28;20444;-83
2022/08/30 01:22:46;;;;;;;10.37;8.30;;;20.30;99.90;;;;;;5057556;28;20437;-83
2022/08/30 01:25:16;;;;;;;9.10;8.30;;;20.30;99.90;;;;;;5056559;28;21023;-83
2022/08/30 01:27:47;;;;;;;10.03;9.03;;;20.20;99.90;;;;;;5057258;28;20449;-83
2022/08/30 01:30:14;;;;;;;12.77;9.23;;;20.20;99.90;;;;;;5057592;28;20496;-84
2022/08/30 01:32:43;;;;;;;9.47;8.63;;;20.10;99.90;;;;;;5057372;28;20463;-84
2022/08/30 01:35:12;;;;;;;10.23;9.30;;;20.00;99.90;;;;;;5056745;28;20476;-83
2022/08/30 01:37:39;;;;;;;10.70;9.70;;;20.00;99.90;;;;;;5058250;28;20452;-83
2022/08/30 01:40:08;;;;;;;9.50;8.60;;;20.00;99.90;;;;;;5058233;28;20523;-84
2022/08/30 01:42:36;;;;;;;10.00;9.10;;;19.90;99.90;;;;;;5058038;28;20877;-84
2022/08/30 01:45:03;;;;;;;10.50;8.70;;;20.00;99.90;;;;;;5057464;28;20519;-84
2022/08/30 01:47:30;;;;;;;9.77;8.87;;;19.90;99.90;;;;;;5055571;28;20488;-82
2022/08/30 01:49:58;;;;;;;9.90;9.00;;;19.90;99.90;;;;;;5054184;28;20453;-82
2022/08/30 01:52:25;;;;;;;10.40;8.83;;;19.90;99.90;;;;;;5055320;28;20868;-82
2022/08/30 01:54:53;;;;;;;10.17;8.67;;;19.80;99.90;;;;;;5072046;28;20473;-81
2022/08/30 01:57:22;;;;;;;11.00;10.00;;;19.80;99.90;;;;;;5075777;28;20502;-80
2022/08/30 01:59:50;;;;;;;11.60;9.07;;;19.80;99.90;;;;;;5069720;28;20475;-82
2022/08/30 02:02:19;;;;;;;10.13;9.13;;;19.70;99.90;;;;;;5068318;28;20498;-83
2022/08/30 02:04:46;;;;;;;10.50;8.90;;;19.70;99.90;;;;;;5062704;28;20480;-84
2022/08/30 02:07:13;;;;;;;10.97;8.53;;;19.70;99.90;;;;;;5059069;28;20452;-84
2022/08/30 02:09:39;;;;;;;9.43;8.13;;;19.70;99.90;;;;;;5057621;28;20471;-82
2022/08/30 02:12:07;;;;;;;10.90;9.10;;;19.80;99.90;;;;;;5062484;28;20440;-83
2022/08/30 02:14:34;;;;;;;9.77;8.87;;;19.70;99.90;;;;;;5073579;28;20457;-81
2022/08/30 02:17:02;;;;;;;9.93;8.40;;;19.60;99.90;;;;;;5059767;28;20963;-83
2022/08/30 02:19:29;;;;;;;11.37;9.47;;;19.70;99.90;;;;;;5055417;28;20514;-83
2022/08/30 02:21:56;;;;;;;9.43;8.50;;;19.70;99.90;;;;;;5055025;28;20567;-83
2022/08/30 02:24:23;;;;;;;10.20;9.30;;;19.70;99.90;;;;;;5058953;28;20476;-82
2022/08/30 02:26:52;;;;;;;10.03;9.03;;;19.60;99.90;;;;;;5061075;28;20440;-84
2022/08/30 02:29:19;;;;;;;9.50;8.60;;;19.50;99.90;;;;;;5057159;28;20439;-84
2022/08/30 02:31:46;;;;;;;9.57;8.67;;;19.40;99.90;;;;;;5058854;28;20457;-84
2022/08/30 02:34:17;;;;;;;10.07;9.07;;;19.40;99.90;;;;;;5058673;28;20468;-84
2022/08/30 02:36:44;;;;;;;10.33;9.33;;;19.40;99.90;;;;;;5074417;28;20500;-81
2022/08/30 02:39:13;;;;;;;10.83;9.60;;;19.40;99.90;;;;;;5078030;28;20437;-81
2022/08/30 02:41:42;;;;;;;11.70;10.60;;;19.30;99.90;;;;;;5073329;28;20524;-81
2022/08/30 02:44:10;;;;;;;10.57;8.40;;;19.20;99.90;;;;;;5055981;28;20464;-81
2022/08/30 02:46:37;;;;;;;10.30;9.33;;;19.10;99.90;;;;;;5053558;28;20759;-81
2022/08/30 02:49:04;;;;;;;10.83;9.73;;;19.10;99.90;;;;;;5053957;28;20445;-83
2022/08/30 02:51:32;;;;;;;11.23;10.23;;;19.00;99.90;;;;;;5052709;28;20453;-81
2022/08/30 02:53:59;;;;;;;11.10;9.17;;;19.00;99.90;;;;;;5053761;28;20543;-81
2022/08/30 02:56:27;;;;;;;12.20;9.80;;;18.90;99.90;;;;;;5053668;28;20488;-82
2022/08/30 02:58:54;;;;;;;10.80;9.83;;;19.00;99.90;;;;;;5054255;28;20518;-81
2022/08/30 03:01:21;;;;;;;10.90;9.80;;;18.90;99.90;;;;;;5054880;28;20448;-81
2022/08/30 03:03:49;;;;;;;11.77;10.43;;;18.90;99.90;;;;;;5056333;28;20480;-83
2022/08/30 03:06:16;;;;;;;12.97;10.60;;;18.90;99.90;;;;;;5054049;28;20472;-83
2022/08/30 03:08:44;;;;;;;11.70;10.53;;;18.80;99.90;;;;;;5053720;28;20938;-83
2022/08/30 03:11:12;;;;;;;16.20;10.73;;;18.80;99.90;;;;;;5059546;28;20476;-82
2022/08/30 03:13:39;;;;;;;11.40;9.97;;;18.80;99.90;;;;;;5063207;28;20477;-82
2022/08/30 03:16:06;;;;;;;11.70;10.47;;;18.80;99.90;;;;;;5067180;28;20508;-81
2022/08/30 03:18:33;;;;;;;11.57;10.37;;;18.80;99.90;;;;;;5072093;28;20457;-84
2022/08/30 03:21:00;;;;;;;14.93;11.83;;;18.80;99.90;;;;;;5073731;28;20425;-81
2022/08/30 03:23:26;;;;;;;12.60;11.27;;;18.80;99.90;;;;;;5058301;28;20440;-83
2022/08/30 03:25:56;;;;;;;11.83;10.63;;;18.70;99.90;;;;;;5059850;28;20513;-83
2022/08/30 03:28:23;;;;;;;16.00;11.80;;;18.80;99.90;;;;;;5058833;28;20447;-83
2022/08/30 03:30:49;;;;;;;12.13;10.40;;;18.70;99.90;;;;;;5064853;28;20548;-83
2022/08/30 03:33:16;;;;;;;12.83;11.53;;;18.70;99.90;;;;;;5060946;28;20453;-83
2022/08/30 03:35:43;;;;;;;11.20;10.17;;;18.70;99.90;;;;;;5065941;28;20452;-83
2022/08/30 03:38:09;;;;;;;16.67;12.53;;;18.60;99.90;;;;;;5079385;28;20432;-83
2022/08/30 03:40:36;;;;;;;16.00;14.40;;;18.60;99.90;;;;;;5079344;28;20441;-81
2022/08/30 03:43:04;;;;;;;12.97;11.60;;;18.60;99.90;;;;;;5070821;28;20440;-82
2022/08/30 03:45:31;;;;;;;13.53;12.10;;;18.50;99.90;;;;;;5058380;28;20491;-82
2022/08/30 03:47:57;;;;;;;15.53;13.70;;;18.40;99.90;;;;;;5057289;28;20456;-82
2022/08/30 03:50:25;;;;;;;15.60;11.83;;;18.40;99.90;;;;;;5056833;28;20444;-83
2022/08/30 03:52:52;;;;;;;18.60;13.23;;;18.50;99.90;;;;;;5056841;28;20444;-82
2022/08/30 03:55:19;;;;;;;14.23;12.30;;;18.50;99.90;;;;;;5057205;28;20476;-81
2022/08/30 03:57:46;;;;;;;20.47;16.00;;;18.40;99.90;;;;;;5070435;28;20501;-80
2022/08/30 04:00:16;;;;;;;19.00;12.67;;;18.40;99.90;;;;;;5064816;28;20437;-81
2022/08/30 04:02:43;;;;;;;15.17;13.57;;;18.40;99.90;;;;;;5060703;28;20454;-83
2022/08/30 04:05:10;;;;;;;15.23;13.70;;;18.40;99.90;;;;;;5057039;28;20511;-82
2022/08/30 04:07:37;;;;;;;15.40;13.60;;;18.40;99.90;;;;;;5056666;28;20449;-81
2022/08/30 04:10:06;;;;;;;18.10;14.23;;;18.40;99.90;;;;;;5056679;28;20452;-82
2022/08/30 04:12:32;;;;;;;18.10;14.67;;;18.30;99.90;;;;;;5056126;28;20448;-81
2022/08/30 04:14:59;;;;;;;20.43;17.37;;;18.30;99.90;;;;;;5056532;28;20460;-83
2022/08/30 04:17:27;;;;;;;18.43;15.93;;;18.30;99.90;;;;;;5061818;28;20491;-83
2022/08/30 04:19:54;;;;;;;17.73;15.90;;;18.30;99.90;;;;;;5070196;28;20984;-81
2022/08/30 04:22:21;;;;;;;16.93;15.20;;;18.30;99.90;;;;;;5064602;28;20452;-82
2022/08/30 04:24:47;;;;;;;17.30;15.60;;;18.30;99.90;;;;;;5059924;28;20472;-83
2022/08/30 04:27:14;;;;;;;18.77;16.87;;;18.30;99.90;;;;;;5060474;28;20964;-83
2022/08/30 04:29:41;;;;;;;19.37;16.53;;;18.20;99.90;;;;;;5060398;28;20970;-82
2022/08/30 04:32:07;;;;;;;20.10;18.20;;;18.30;99.90;;;;;;5059313;28;20886;-84
2022/08/30 04:34:35;;;;;;;20.17;17.20;;;18.20;99.90;;;;;;5059231;28;20462;-83
2022/08/30 04:37:02;;;;;;;21.60;17.63;;;18.10;99.90;;;;;;5060482;28;20507;-81
2022/08/30 04:39:29;;;;;;;20.63;17.50;;;18.00;99.90;;;;;;5060025;28;20447;-84
2022/08/30 04:41:56;;;;;;;19.50;16.00;;;18.00;99.90;;;;;;5057710;28;20476;-84
2022/08/30 04:44:26;;;;;;;20.37;18.03;;;18.00;99.90;;;;;;5058010;28;20465;-83
2022/08/30 04:46:53;;;;;;;19.73;16.77;;;18.00;99.90;;;;;;5058646;28;20452;-83
2022/08/30 04:49:20;;;;;;;21.10;16.80;;;18.00;99.90;;;;;;5058090;28;20949;-83
2022/08/30 04:51:51;;;;;;;18.30;15.87;;;18.00;99.90;;;;;;5057207;28;20547;-83
2022/08/30 04:54:17;;;;;;;19.80;17.80;;;18.00;99.90;;;;;;5058708;28;20461;-82
2022/08/30 04:56:44;;;;;;;20.30;16.83;;;18.00;99.90;;;;;;5056943;28;20484;-83
2022/08/30 04:59:11;;;;;;;21.10;16.63;;;18.10;99.90;;;;;;5057567;28;20452;-83
2022/08/30 05:01:37;;;;;;;21.10;16.03;;;18.20;99.90;;;;;;5057778;28;20447;-83
2022/08/30 05:04:05;;;;;;;16.10;13.53;;;18.20;99.90;;;;;;5058204;28;20542;-82
2022/08/30 05:06:32;;;;;;;15.23;13.57;;;18.30;99.90;;;;;;5057872;28;20537;-84
2022/08/30 05:09:00;;;;;;;16.93;14.23;;;18.40;99.90;;;;;;5059615;28;20805;-84
2022/08/30 05:11:27;;;;;;;19.53;15.67;;;18.50;99.90;;;;;;5058317;28;20481;-84
2022/08/30 05:13:55;;;;;;;19.63;15.00;;;18.60;99.90;;;;;;5058512;28;20469;-84
2022/08/30 05:16:21;;;;;;;19.90;15.10;;;18.70;99.90;;;;;;5057685;28;20491;-84
2022/08/30 05:18:50;;;;;;;16.53;14.83;;;18.70;99.90;;;;;;5057929;28;20465;-83
2022/08/30 05:21:19;;;;;;;14.93;13.37;;;18.80;99.90;;;;;;5062407;28;20444;-83
2022/08/30 05:23:47;;;;;;;16.30;14.67;;;18.80;99.90;;;;;;5066111;28;20467;-82
2022/08/30 05:26:17;;;;;;;18.40;15.70;;;18.90;99.90;;;;;;5065574;28;20444;-83
2022/08/30 05:28:44;;;;;;;17.37;15.10;;;19.00;99.90;;;;;;5063645;28;20445;-83
2022/08/30 05:31:16;;;;;;;17.73;14.10;;;19.10;99.90;;;;;;5060167;28;20445;-83
2022/08/30 05:33:43;;;;;;;17.00;15.23;;;19.20;99.90;;;;;;5059600;28;20470;-83
2022/08/30 05:36:11;;;;;;;19.07;17.00;;;19.30;99.90;;;;;;5058067;28;20441;-81
2022/08/30 05:38:38;;;;;;;18.37;15.03;;;19.30;99.90;;;;;;5058647;28;20437;-83
2022/08/30 05:41:05;;;;;;;18.53;15.60;;;19.40;99.90;;;;;;5058693;28;20453;-83
2022/08/30 05:43:33;;;;;;;19.20;15.80;;;19.30;99.90;;;;;;5066201;28;21057;-81
2022/08/30 05:46:01;;;;;;;18.43;15.97;;;19.20;99.90;;;;;;5071845;28;20440;-83
2022/08/30 05:48:28;;;;;;;26.10;16.37;;;19.30;99.90;;;;;;5061816;28;20480;-82
2022/08/30 05:51:02;;;;;;;19.30;15.70;;;19.40;99.90;;;;;;5057793;28;20441;-80
2022/08/30 05:53:29;;;;;;;19.37;17.30;;;19.40;99.90;;;;;;5059073;28;20444;-79
2022/08/30 05:56:31;;;;;;;15.97;14.20;;;19.30;99.90;;;;;;5067036;28;20429;-81
2022/08/30 05:58:59;;;;;;;20.83;15.43;;;19.40;99.90;;;;;;5078268;28;20463;-83
2022/08/30 06:01:27;;;;;;;18.33;13.87;;;19.50;99.90;;;;;;5077225;28;20494;-84
2022/08/30 06:06:24;;;;;;;15.70;14.20;;;19.60;99.90;;;;;;5086624;28;20557;-79
2022/08/30 06:08:51;;;;;;;16.47;13.80;;;19.60;99.90;;;;;;5092876;28;20497;-81
2022/08/30 06:11:21;;;;;;;18.33;14.43;;;19.50;99.90;;;;;;5093084;28;20541;-79
2022/08/30 06:13:48;;;;;;;21.40;15.17;;;19.60;99.90;;;;;;5093128;28;20940;-79
2022/08/30 06:16:19;;;;;;;16.43;14.60;;;19.60;99.90;;;;;;5084503;28;20917;-77
2022/08/30 06:18:46;;;;;;;19.10;17.07;;;19.70;99.90;;;;;;5076225;28;20444;-77
2022/08/30 06:21:16;;;;;;;18.80;16.87;;;19.70;99.90;;;;;;5079138;28;20839;-77
2022/08/30 06:23:43;;;;;;;24.63;16.70;;;19.80;99.90;;;;;;5078698;28;20514;-76
2022/08/30 06:26:10;;;;;;;21.80;17.00;;;20.00;99.90;;;;;;5081660;28;20462;-77
2022/08/30 06:28:37;;;;;;;15.80;14.20;;;20.60;99.90;;;;;;5079753;28;20439;-76
2022/08/30 06:31:05;;;;;;;15.03;13.50;;;21.50;99.90;;;;;;5083656;28;20435;-77
2022/08/30 06:33:34;;;;;;;16.27;13.23;;;22.00;99.90;;;;;;5087116;28;20436;-78
2022/08/30 06:36:19;;;;;;;11.90;10.70;;;22.80;99.90;;;;;;5085627;28;20454;-80
2022/08/30 06:38:46;;;;;;;11.50;10.50;;;23.60;99.90;;;;;;5082419;28;20482;-77
2022/08/30 06:41:17;;;;;;;13.97;11.13;;;23.80;99.30;;;;;;5086907;28;20459;-77
2022/08/30 06:43:43;;;;;;;18.53;10.63;;;24.50;97.80;;;;;;5083698;28;20443;-79
2022/08/30 06:46:13;;;;;;;15.00;11.87;;;25.00;96.10;;;;;;5077384;28;20929;-77
2022/08/30 06:48:41;;;;;;;12.37;11.03;;;25.10;95.20;;;;;;5076880;28;20431;-77
2022/08/30 06:51:08;;;;;;;13.40;11.40;;;25.70;94.50;;;;;;5081161;28;20447;-77
2022/08/30 06:53:36;;;;;;;12.10;10.90;;;26.40;92.30;;;;;;5080112;28;20493;-77
2022/08/30 06:56:06;;;;;;;13.63;11.23;;;26.80;90.90;;;;;;5085435;28;20456;-78
2022/08/30 06:58:34;;;;;;;12.67;11.57;;;27.40;87.50;;;;;;5081700;28;20471;-77
2022/08/30 07:01:01;;;;;;;14.43;12.33;;;28.10;85.10;;;;;;5080962;28;20445;-78
2022/08/30 07:03:28;;;;;;;16.17;12.17;;;28.70;80.50;;;;;;5082454;28;20436;-78
2022/08/30 07:05:57;;;;;;;13.27;11.13;;;29.10;79.10;;;;;;5084589;28;20474;-78
2022/08/30 07:08:24;;;;;;;13.70;12.47;;;29.10;76.00;;;;;;5080576;28;20449;-78
2022/08/30 07:10:53;;;;;;;13.20;11.67;;;28.70;75.70;;;;;;5086786;28;20819;-77
2022/08/30 07:13:20;;;;;;;13.20;10.53;;;28.90;75.60;;;;;;5082247;28;20450;-76
2022/08/30 07:15:47;;;;;;;14.13;10.50;;;30.00;72.50;;;;;;5085447;28;20510;-77
2022/08/30 07:21:07;;;;;;;13.70;11.63;;;30.50;65.30;;;;;;5092284;28;20494;-76
2022/08/30 07:23:34;;;;;;;12.43;11.23;;;29.70;67.40;;;;;;5087431;28;20503;-78
2022/08/30 07:26:04;;;;;;;17.27;9.87;;;29.70;68.60;;;;;;5080953;28;20475;-77
2022/08/30 07:28:30;;;;;;;11.33;9.93;;;31.30;65.50;;;;;;5079842;28;20439;-77
2022/08/30 07:30:57;;;;;;;14.40;10.07;;;32.30;62.20;;;;;;5078231;28;20449;-77
2022/08/30 07:33:24;;;;;;;11.30;10.37;;;32.30;59.60;;;;;;5082976;28;20438;-77
2022/08/30 07:35:51;;;;;;;12.03;10.73;;;33.70;58.20;;;;;;5085103;28;20462;-77
2022/08/30 07:38:19;;;;;;;13.00;9.10;;;34.20;56.00;;;;;;5082536;28;21003;-79
2022/08/30 07:40:45;;;;;;;10.03;9.13;;;34.10;54.70;;;;;;5094893;28;20443;-79
2022/08/30 07:43:12;;;;;;;11.40;10.23;;;33.30;54.60;;;;;;5086132;28;20449;-79
2022/08/30 07:45:39;;;;;;;12.13;10.50;;;32.20;56.60;;;;;;5081173;28;20462;-79
2022/08/30 07:48:07;;;;;;;11.47;10.37;;;31.10;58.30;;;;;;5085655;28;20442;-78
2022/08/30 07:50:34;;;;;;;10.40;9.40;;;30.20;60.00;;;;;;5082512;28;20866;-78
2022/08/30 07:53:01;;;;;;;11.50;10.30;;;29.90;61.80;;;;;;5079248;28;20429;-78
2022/08/30 07:55:29;;;;;;;10.10;9.10;;;29.90;61.80;;;;;;5078206;28;20548;-79
2022/08/30 07:57:55;;;;;;;11.07;9.80;;;29.80;62.60;;;;;;5079717;28;20482;-77
2022/08/30 08:00:22;;;;;;;12.47;9.30;;;29.40;63.20;;;;;;5082032;28;20950;-79
2022/08/30 08:02:49;;;;;;;9.60;8.53;;;29.00;64.80;;;;;;5078169;28;20438;-78
2022/08/30 08:05:16;;;;;;;17.33;10.77;;;28.80;66.30;;;;;;5086383;28;20500;-78
2022/08/30 08:07:43;;;;;;;11.20;10.00;;;28.80;66.00;;;;;;5096578;28;20827;-79
2022/08/30 08:10:10;;;;;;;9.80;8.70;;;28.70;66.40;;;;;;5079767;28;20436;-79
2022/08/30 08:12:38;;;;;;;9.90;9.00;;;28.60;66.80;;;;;;5084987;28;20470;-78
2022/08/30 08:15:06;;;;;;;9.30;8.57;;;28.90;67.10;;;;;;5091344;28;20532;-79
2022/08/30 08:17:33;;;;;;;9.57;8.57;;;29.80;65.40;;;;;;5086714;28;20473;-79
2022/08/30 08:20:00;;;;;;;9.60;8.60;;;31.00;62.10;;;;;;5097750;28;20785;-79
2022/08/30 08:22:27;;;;;;;9.50;8.57;;;31.00;60.40;;;;;;5096237;28;20449;-79
2022/08/30 08:24:53;;;;;;;10.53;8.77;;;30.60;60.70;;;;;;5083933;28;21155;-79
2022/08/30 08:27:20;;;;;;;10.73;8.50;;;30.70;60.80;;;;;;5076774;28;20544;-79
2022/08/30 08:29:48;;;;;;;8.70;7.77;;;30.80;60.90;;;;;;5077410;28;20439;-79
2022/08/30 08:32:15;;;;;;;7.87;7.17;;;31.70;59.50;;;;;;5077061;28;20978;-79
2022/08/30 08:34:42;;;;;;;8.37;7.00;;;32.80;57.00;;;;;;5076923;28;20477;-79
2022/08/30 08:37:08;;;;;;;8.07;7.37;;;33.50;55.80;;;;;;5076517;28;20445;-79
2022/08/30 08:39:35;;;;;;;7.77;7.17;;;33.10;55.30;;;;;;5079544;28;20455;-79
2022/08/30 08:42:12;;;;;;;12.53;9.07;;;32.60;55.70;;;;;;5077403;28;20457;-79
2022/08/30 08:44:51;;;;;;;7.83;6.87;;;32.30;57.00;;;;;;5076622;28;20822;-79
2022/08/30 08:47:25;;;;;;;7.40;6.70;;;34.00;54.60;;;;;;5075451;28;20464;-79
2022/08/30 08:49:56;;;;;;;6.57;6.07;;;35.10;51.90;;;;;;5076034;28;20451;-80
2022/08/30 08:55:17;;;;;;;7.40;6.80;;;35.70;49.70;;;;;;5080687;28;20440;-79
2022/08/30 08:57:45;;;;;;;8.17;7.43;;;36.00;48.60;;;;;;5081885;28;20481;-79
2022/08/30 09:00:14;;;;;;;8.20;6.43;;;36.10;48.70;;;;;;5081560;28;20452;-79
2022/08/30 09:02:44;;;;;;;6.70;6.20;;;37.00;47.40;;;;;;5081842;28;20455;-79
2022/08/30 09:05:14;;;;;;;6.60;5.87;;;36.80;46.50;;;;;;5081667;28;20491;-79
2022/08/30 09:07:45;;;;;;;7.23;6.37;;;36.90;46.70;;;;;;5078432;28;20436;-79
2022/08/30 09:10:12;;;;;;;6.53;6.03;;;37.60;45.40;;;;;;5073629;28;20455;-78
2022/08/30 09:12:38;;;;;;;6.53;6.03;;;36.30;46.60;;;;;;5078180;28;20458;-78
2022/08/30 09:15:11;;;;;;;7.43;6.83;;;36.00;47.50;;;;;;5079411;28;20489;-79
2022/08/30 09:17:53;;;;;;;6.40;5.80;;;36.60;47.00;;;;;;5078564;28;20483;-78
2022/08/30 09:20:30;;;;;;;6.70;6.20;;;37.40;46.00;;;;;;5076609;28;20447;-79
2022/08/30 09:22:57;;;;;;;6.80;6.30;;;38.40;44.60;;;;;;5075997;28;20462;-79
2022/08/30 09:25:27;;;;;;;7.63;7.03;;;39.60;42.40;;;;;;5075574;28;20964;-79
2022/08/30 09:28:07;;;;;;;6.57;5.97;;;40.50;40.70;;;;;;5076455;28;20459;-79
2022/08/30 09:30:35;;;;;;;6.13;5.53;;;39.50;40.70;;;;;;5075887;28;20432;-79
2022/08/30 09:33:05;;;;;;;6.73;6.17;;;38.40;42.80;;;;;;5074421;28;21067;-79
2022/08/30 09:35:34;;;;;;;6.70;6.10;;;39.40;41.90;;;;;;5074733;28;20551;-79
2022/08/30 09:38:05;;;;;;;5.87;5.37;;;39.80;40.90;;;;;;5073770;28;20534;-79
2022/08/30 09:40:36;;;;;;;6.27;5.77;;;39.80;40.60;;;;;;5075588;28;20510;-84
2022/08/30 09:43:07;;;;;;;6.63;6.03;;;38.00;42.40;;;;;;5076411;28;20530;-85
2022/08/30 09:45:39;;;;;;;6.53;6.03;;;38.40;42.60;;;;;;5076509;28;20566;-85
2022/08/30 09:48:29;;;;;;;6.57;5.60;;;39.60;41.70;;;;;;5074527;28;20857;-84
2022/08/30 09:51:11;;;;;;;6.40;5.90;;;41.50;38.90;;;;;;5075129;28;20539;-85
2022/08/30 09:53:49;;;;;;;6.60;6.00;;;42.50;37.40;;;;;;5074210;28;20451;-85
2022/08/30 09:56:20;;;;;;;6.13;5.63;;;42.30;36.70;;;;;;5080201;28;20477;-86
2022/08/30 09:59:02;;;;;;;6.20;5.70;;;42.10;36.10;;;;;;5080214;28;20492;-85
2022/08/30 10:01:33;;;;;;;6.30;5.77;;;41.70;36.30;;;;;;5088005;28;20439;-85
2022/08/30 10:04:08;;;;;;;6.63;6.00;;;41.50;36.50;;;;;;5075849;28;20450;-85
2022/08/30 10:06:43;;;;;;;7.10;6.60;;;41.60;36.70;;;;;;5075697;28;20816;-85
2022/08/30 10:09:22;;;;;;;6.30;5.90;;;41.80;36.50;;;;;;5097253;28;20417;-87
2022/08/30 10:11:56;;;;;;;6.07;5.67;;;41.70;35.50;;;;;;5098253;28;20423;-87
2022/08/30 10:14:51;;;;;;;6.20;5.70;;;39.10;37.00;;;;;;5098055;28;20464;-86
2022/08/30 10:17:28;;;;;;;7.10;6.60;;;38.80;38.10;;;;;;5097969;28;20436;-86
2022/08/30 10:20:13;;;;;;;6.50;6.00;;;38.90;38.60;;;;;;5097802;28;20467;-86
2022/08/30 10:22:45;;;;;;;6.03;5.50;;;39.90;37.10;;;;;;5095174;28;20447;-86
2022/08/30 10:25:17;;;;;;;6.47;5.83;;;39.80;36.40;;;;;;5087709;28;20478;-85
2022/08/30 10:27:50;;;;;;;6.10;5.50;;;39.20;37.40;;;;;;5078731;28;20779;-84
2022/08/30 10:30:18;;;;;;;7.23;5.33;;;38.60;37.40;;;;;;5095491;28;20672;-84
2022/08/30 10:32:51;;;;;;;6.17;5.67;;;39.40;37.40;;;;;;5089182;28;20447;-84
2022/08/30 10:35:21;;;;;;;5.03;4.63;;;40.10;35.80;;;;;;5073409;28;20476;-85
2022/08/30 10:37:52;;;;;;;4.63;4.23;;;41.00;34.20;;;;;;5073742;28;20487;-86
2022/08/30 10:43:19;;;;;;;6.50;4.90;;;42.30;31.90;;;;;;5074141;28;20427;-86
2022/08/30 10:45:47;;;;;;;6.03;5.50;;;43.30;31.40;;;;;;5072874;28;20455;-86
2022/08/30 10:48:20;;;;;;;5.97;5.57;;;42.30;31.10;;;;;;5074154;28;20472;-86
2022/08/30 10:50:52;;;;;;;5.40;4.90;;;42.80;30.90;;;;;;5073704;28;20455;-85
2022/08/30 10:53:21;;;;;;;6.10;5.60;;;41.20;30.70;;;;;;5073195;28;20464;-85
2022/08/30 10:55:52;;;;;;;9.50;5.93;;;38.90;33.10;;;;;;5085001;28;20457;-86
2022/08/30 10:58:19;;;;;;;6.13;5.37;;;38.20;35.40;;;;;;5093760;28;20460;-85
2022/08/30 11:00:56;;;;;;;5.20;4.70;;;38.90;35.20;;;;;;5077814;28;20450;-85
2022/08/30 11:04:03;;;;;;;5.47;4.73;;;39.10;35.10;;;;;;5080934;28;20435;-85
2022/08/30 11:06:37;;;;;;;4.60;4.17;;;39.20;33.90;;;;;;5080278;28;20443;-85
2022/08/30 11:09:21;;;;;;;5.07;4.67;;;38.60;33.80;;;;;;5079255;28;20436;-84
2022/08/30 11:12:19;;;;;;;6.13;5.03;;;39.20;34.40;;;;;;5074005;28;20818;-84
2022/08/30 11:14:46;;;;;;;5.57;5.10;;;40.40;32.80;;;;;;5072898;28;20462;-84
2022/08/30 11:17:26;;;;;;;5.80;5.30;;;41.10;31.20;;;;;;5073210;28;20836;-84
2022/08/30 11:19:55;;;;;;;5.20;4.80;;;40.10;32.30;;;;;;5077774;28;20480;-86
2022/08/30 11:22:26;;;;;;;5.00;4.53;;;40.80;32.30;;;;;;5085425;28;20432;-87
2022/08/30 11:25:02;;;;;;;6.53;5.50;;;42.60;30.70;;;;;;5097141;28;20472;-87
2022/08/30 11:27:49;;;;;;;5.97;5.47;;;43.20;29.80;;;;;;5097100;28;20435;-87
2022/08/30 11:30:50;;;;;;;5.43;5.03;;;42.40;30.00;;;;;;5093777;28;20499;-85
2022/08/30 11:33:43;;;;;;;8.70;8.10;;;41.60;31.00;;;;;;5083728;28;20446;-85
2022/08/30 11:36:17;;;;;;;5.57;4.97;;;40.10;32.90;;;;;;5080470;28;20456;-86
2022/08/30 11:39:08;;;;;;;6.20;5.13;;;39.50;33.40;;;;;;5082084;28;20446;-85
2022/08/30 11:41:45;;;;;;;5.60;5.20;;;39.80;33.40;;;;;;5085007;28;20445;-86
2022/08/30 11:44:30;;;;;;;5.70;5.20;;;39.70;33.40;;;;;;5086683;28;20451;-85
2022/08/30 11:47:00;;;;;;;5.40;5.00;;;38.40;34.30;;;;;;5080945;28;20951;-87
2022/08/30 11:50:00;;;;;;;5.40;5.00;;;36.40;36.60;;;;;;5085370;28;20580;-86
2022/08/30 11:52:41;;;;;;;6.27;5.77;;;35.80;38.40;;;;;;5088747;28;20460;-86
2022/08/30 11:55:25;;;;;;;5.50;5.00;;;35.10;38.60;;;;;;5070210;28;20471;-86
2022/08/30 11:57:58;;;;;;;6.37;5.83;;;35.00;38.90;;;;;;5065410;28;20485;-86
2022/08/30 12:00:29;;;;;;;7.50;6.17;;;35.00;40.60;;;;;;5064443;28;20437;-86
2022/08/30 12:02:59;;;;;;;6.40;5.90;;;34.60;41.80;;;;;;5067096;28;20802;-86
2022/08/30 12:05:56;;;;;;;6.43;5.87;;;34.80;42.10;;;;;;5078532;28;20471;-86
2022/08/30 12:08:50;;;;;;;5.90;5.50;;;35.20;42.30;;;;;;5079633;28;20837;-86
2022/08/30 12:11:55;;;;;;;6.50;5.80;;;34.90;42.10;;;;;;5066810;28;20990;-86
2022/08/30 12:14:48;;;;;;;7.40;6.53;;;34.60;42.80;;;;;;5066953;28;20459;-86
2022/08/30 12:20:18;;;;;;;7.23;6.63;;;34.10;43.50;;;;;;5067272;28;20422;-86
2022/08/30 12:22:45;;;;;;;7.17;6.67;;;34.00;43.60;;;;;;5066666;28;20438;-86
2022/08/30 12:25:21;;;;;;;6.90;5.87;;;34.00;43.40;;;;;;5067555;28;20471;-85
2022/08/30 12:27:49;;;;;;;6.33;5.83;;;34.10;43.30;;;;;;5073160;28;20540;-86
2022/08/30 12:30:26;;;;;;;8.20;6.07;;;34.00;43.50;;;;;;5078698;28;20847;-86
2022/08/30 12:32:53;;;;;;;5.90;5.50;;;33.30;44.50;;;;;;5078163;28;20537;-84
2022/08/30 12:35:22;;;;;;;6.60;6.10;;;33.10;45.40;;;;;;5077391;28;21016;-83
2022/08/30 12:37:58;;;;;;;6.27;5.67;;;32.80;45.30;;;;;;5076980;28;20458;-83
2022/08/30 12:40:25;;;;;;;6.60;6.00;;;32.80;45.80;;;;;;5079280;28;20437;-83
2022/08/30 12:42:55;;;;;;;6.03;5.60;;;33.30;45.50;;;;;;5082747;28;20462;-83
2022/08/30 12:45:25;;;;;;;6.10;5.60;;;33.60;45.50;;;;;;5076433;28;20466;-83
2022/08/30 12:47:56;;;;;;;8.40;7.77;;;33.80;44.20;;;;;;5075226;28;20452;-83
2022/08/30 12:50:27;;;;;;;6.93;5.70;;;34.10;43.60;;;;;;5076187;28;20485;-83
2022/08/30 12:52:58;;;;;;;5.90;5.40;;;34.90;42.90;;;;;;5076315;28;20447;-84
2022/08/30 12:55:27;;;;;;;6.60;5.53;;;35.80;41.50;;;;;;5074967;28;20480;-83
2022/08/30 12:58:01;;;;;;;5.77;5.27;;;36.80;39.70;;;;;;5079471;28;20449;-84
2022/08/30 13:00:30;;;;;;;6.73;5.80;;;36.90;39.50;;;;;;5082582;28;20443;-84
2022/08/30 13:02:59;;;;;;;6.27;5.87;;;35.90;39.80;;;;;;5077145;28;20443;-82
2022/08/30 13:05:41;;;;;;;5.97;5.47;;;35.40;40.80;;;;;;5075146;28;21111;-82
2022/08/30 13:08:11;;;;;;;6.23;5.83;;;35.00;41.30;;;;;;5075933;28;20448;-81
2022/08/30 13:10:49;;;;;;;5.47;5.03;;;35.00;41.10;;;;;;5078419;28;21046;-82